Time;durP1;ratioP1;P1;durP2;ratioP2;P2;SDS_P1;SDS_P2;PMS_P1;PMS_P2;Temp;Humidity;BMP_temperature;BMP_pressure;BME280_temperature;BME280_humidity;BME280_pressure;Samples;Min_cycle;Max_cycle;Signal;HPM_P1;HPM_P2
2021/03/23 00:00:43;;;;;;;17.43;9.53;;;;;;;5.74;63.10;97385.88;5059005;28;20587;-67
2021/03/23 00:03:24;;;;;;;15.40;9.90;;;;;;;5.82;62.84;97386.13;5063098;28;20413;-68
2021/03/23 00:05:56;;;;;;;17.63;8.70;;;;;;;5.73;63.26;97386.81;5057501;28;20491;-70
2021/03/23 00:08:31;;;;;;;18.27;10.50;;;;;;;5.57;63.35;97388.00;5060434;28;20562;-68
2021/03/23 00:10:59;;;;;;;18.07;10.13;;;;;;;5.65;63.89;97384.81;5054176;28;20426;-68
2021/03/23 00:13:25;;;;;;;18.13;9.90;;;;;;;5.67;64.07;97391.53;5055995;28;20513;-68
2021/03/23 00:15:51;;;;;;;21.63;9.90;;;;;;;5.76;63.79;97382.22;5046928;28;20573;-67
2021/03/23 00:18:18;;;;;;;17.20;10.10;;;;;;;5.50;64.25;97379.81;5037439;28;20528;-68
2021/03/23 00:20:44;;;;;;;13.47;9.10;;;;;;;5.62;64.29;97383.28;5055588;28;20187;-69
2021/03/23 00:23:11;;;;;;;16.30;8.83;;;;;;;5.76;63.24;97384.00;5056193;28;20953;-67
2021/03/23 00:25:36;;;;;;;21.93;10.03;;;;;;;5.65;63.62;97384.81;5054324;28;20453;-68
2021/03/23 00:28:04;;;;;;;19.80;10.43;;;;;;;5.91;63.08;97387.19;5056313;28;20457;-67
2021/03/23 00:30:30;;;;;;;21.53;11.20;;;;;;;5.83;63.33;97383.41;5060274;28;20264;-67
2021/03/23 00:32:55;;;;;;;18.00;9.47;;;;;;;5.73;63.55;97387.66;5087023;28;20643;-67
2021/03/23 00:35:21;;;;;;;19.63;10.30;;;;;;;5.77;63.30;97391.66;5062074;28;20186;-67
2021/03/23 00:37:52;;;;;;;17.53;9.73;;;;;;;5.91;63.13;97388.03;5059643;28;20238;-68
2021/03/23 00:40:21;;;;;;;20.20;10.83;;;;;;;5.47;65.00;97387.03;5036048;28;20418;-68
2021/03/23 00:42:47;;;;;;;20.33;10.73;;;;;;;5.58;64.00;97388.84;5029011;28;20508;-68
2021/03/23 00:45:13;;;;;;;22.00;10.70;;;;;;;5.76;63.91;97381.41;5036648;28;20980;-68
2021/03/23 00:47:39;;;;;;;19.73;11.13;;;;;;;5.88;63.45;97383.06;5062278;28;20472;-68
2021/03/23 00:50:05;;;;;;;20.63;10.50;;;;;;;5.95;63.14;97376.41;5053572;28;20697;-68
2021/03/23 00:52:31;;;;;;;20.80;10.70;;;;;;;5.95;63.21;97381.63;5066106;28;20179;-68
2021/03/23 00:54:57;;;;;;;23.93;10.50;;;;;;;5.78;63.40;97387.31;5052720;28;20453;-68
2021/03/23 00:57:23;;;;;;;21.77;10.73;;;;;;;5.74;63.72;97383.28;5053894;28;20247;-68
2021/03/23 00:59:49;;;;;;;22.20;11.80;;;;;;;5.91;63.29;97385.44;5057032;28;20425;-68
2021/03/23 01:02:15;;;;;;;16.63;10.70;;;;;;;5.95;63.64;97376.41;5046642;28;20194;-70
2021/03/23 01:04:41;;;;;;;18.67;10.23;;;;;;;5.68;64.17;97382.78;5064373;28;20546;-69
2021/03/23 01:07:07;;;;;;;22.53;12.17;;;;;;;5.88;64.45;97382.22;5058669;28;20427;-70
2021/03/23 01:09:33;;;;;;;18.90;10.90;;;;;;;5.82;64.02;97386.13;5052086;28;20290;-67
2021/03/23 01:11:58;;;;;;;20.17;10.70;;;;;;;5.72;65.57;97385.16;5055587;28;20436;-68
2021/03/23 01:14:24;;;;;;;21.27;12.00;;;;;;;5.89;64.82;97382.13;5053245;28;20226;-68
2021/03/23 01:16:50;;;;;;;19.73;10.70;;;;;;;6.14;63.94;97380.22;5052498;28;20260;-67
2021/03/23 01:19:15;;;;;;;22.17;11.50;;;;;;;6.04;63.73;97377.50;5051624;28;20199;-67
2021/03/23 01:21:41;;;;;;;20.33;12.63;;;;;;;5.62;64.98;97380.69;5051304;28;20274;-68
2021/03/23 01:24:07;;;;;;;24.50;11.30;;;;;;;5.98;64.23;97383.19;5051058;28;20176;-68
2021/03/23 01:26:33;;;;;;;26.23;11.93;;;;;;;5.97;64.47;97378.91;5034809;28;20841;-67
2021/03/23 01:28:59;;;;;;;22.90;11.30;;;;;;;6.22;63.68;97377.03;5051451;28;20465;-67
2021/03/23 01:31:24;;;;;;;22.57;12.33;;;;;;;5.99;64.58;97377.88;5054395;28;20187;-67
2021/03/23 01:33:50;;;;;;;20.80;11.73;;;;;;;5.82;64.86;97386.13;5051861;28;20202;-68
2021/03/23 01:36:15;;;;;;;22.03;11.43;;;;;;;5.84;64.79;97384.22;5052790;28;20179;-67
2021/03/23 01:38:41;;;;;;;22.80;12.30;;;;;;;6.04;64.57;97392.31;5051665;28;20616;-68
2021/03/23 01:41:07;;;;;;;24.33;11.90;;;;;;;5.84;64.74;97390.28;5051343;28;20278;-68
2021/03/23 01:43:34;;;;;;;24.27;12.40;;;;;;;5.78;64.82;97390.72;5051525;28;20528;-67
2021/03/23 01:46:02;;;;;;;20.10;11.30;;;;;;;6.06;64.25;97378.22;5019697;28;20175;-67
2021/03/23 01:48:33;;;;;;;26.47;12.60;;;;;;;5.87;65.05;97378.78;5034153;28;20832;-67
2021/03/23 01:51:01;;;;;;;22.47;12.63;;;;;;;5.96;64.83;97378.06;5051910;28;20843;-67
2021/03/23 01:53:40;;;;;;;23.27;12.63;;;;;;;6.17;64.17;97380.00;5051458;28;20445;-67
2021/03/23 01:56:07;;;;;;;29.67;13.20;;;;;;;6.21;63.98;97376.19;5054174;28;20931;-67
2021/03/23 01:58:36;;;;;;;27.13;12.90;;;;;;;6.17;64.20;97372.19;5039755;28;20530;-68
2021/03/23 02:01:02;;;;;;;24.20;13.00;;;;;;;6.44;63.44;97370.94;5053866;28;20426;-68
2021/03/23 02:03:28;;;;;;;23.33;12.60;;;;;;;6.21;63.63;97371.00;5034269;28;20433;-68
2021/03/23 02:05:55;;;;;;;22.40;12.47;;;;;;;6.45;63.21;97372.59;5052636;28;20430;-68
2021/03/23 02:08:21;;;;;;;23.37;12.30;;;;;;;6.23;63.70;97376.91;5054979;28;20210;-67
2021/03/23 02:10:48;;;;;;;24.03;12.70;;;;;;;6.44;63.18;97376.16;5052702;28;20429;-67
2021/03/23 02:13:14;;;;;;;31.53;13.80;;;;;;;6.45;63.20;97368.22;5051560;28;20457;-67
2021/03/23 02:15:39;;;;;;;26.87;14.30;;;;;;;6.65;62.57;97373.59;5057907;28;20865;-67
2021/03/23 02:18:13;;;;;;;27.47;13.83;;;;;;;6.34;63.38;97370.03;5060526;28;20642;-67
2021/03/23 02:21:12;;;;;;;24.93;13.47;;;;;;;6.49;62.92;97374.00;5051227;28;20655;-66
2021/03/23 02:23:41;;;;;;;28.70;14.57;;;;;;;6.56;63.24;97369.97;5040247;28;20430;-67
2021/03/23 02:26:09;;;;;;;28.77;14.80;;;;;;;6.76;62.52;97367.53;5052951;28;21117;-67
2021/03/23 02:28:51;;;;;;;25.97;14.00;;;;;;;6.44;63.07;97373.53;5051454;28;20969;-67
2021/03/23 02:31:22;;;;;;;30.43;15.30;;;;;;;6.49;63.49;97368.81;5044629;28;20904;-67
2021/03/23 02:33:47;;;;;;;29.73;15.40;;;;;;;6.41;62.96;97373.81;5049381;28;20465;-67
2021/03/23 02:36:13;;;;;;;34.00;16.10;;;;;;;6.57;63.17;97374.22;5052455;28;20921;-68
2021/03/23 02:38:39;;;;;;;31.67;16.70;;;;;;;6.50;63.75;97365.25;5034564;28;20214;-67
2021/03/23 02:41:04;;;;;;;29.50;16.20;;;;;;;6.62;63.36;97373.84;5051464;28;20175;-67
2021/03/23 02:43:30;;;;;;;36.87;18.43;;;;;;;6.51;63.41;97372.13;5052440;28;20539;-67
2021/03/23 02:45:56;;;;;;;34.20;18.33;;;;;;;6.20;64.74;97373.72;5054196;28;20198;-67
2021/03/23 02:48:22;;;;;;;70.37;25.27;;;;;;;6.23;64.47;97369.09;5056766;28;20202;-67
2021/03/23 02:50:48;;;;;;;40.40;19.07;;;;;;;6.48;64.01;97372.34;5051896;28;20429;-67
2021/03/23 02:53:14;;;;;;;65.93;24.50;;;;;;;6.51;64.07;97371.28;5053489;28;20529;-66
2021/03/23 02:55:39;;;;;;;35.63;18.60;;;;;;;6.61;63.92;97367.81;5052251;28;20251;-67
2021/03/23 02:58:05;;;;;;;43.57;19.83;;;;;;;6.20;64.74;97364.13;5044016;28;20532;-67
2021/03/23 03:00:32;;;;;;;38.17;21.97;;;;;;;6.36;64.20;97370.72;5050301;28;20203;-67
2021/03/23 03:02:57;;;;;;;36.97;20.17;;;;;;;6.21;65.00;97360.56;5051032;28;20183;-67
2021/03/23 03:05:23;;;;;;;42.77;21.23;;;;;;;6.18;65.57;97358.22;5055047;28;20473;-67
2021/03/23 03:07:49;;;;;;;37.33;19.10;;;;;;;6.17;65.07;97358.34;5049213;28;20293;-67
2021/03/23 03:10:15;;;;;;;40.77;21.20;;;;;;;6.47;64.31;97365.50;5050396;28;20501;-68
2021/03/23 03:12:41;;;;;;;43.30;20.20;;;;;;;6.38;64.15;97361.03;5050799;28;20302;-68
2021/03/23 03:15:07;;;;;;;38.30;20.33;;;;;;;6.04;65.75;97353.28;5051177;28;20505;-68
2021/03/23 03:17:33;;;;;;;37.40;20.07;;;;;;;5.89;66.21;97361.31;5050705;28;20179;-68
2021/03/23 03:19:58;;;;;;;38.50;21.20;;;;;;;6.29;65.17;97358.22;5051506;28;20486;-68
2021/03/23 03:22:24;;;;;;;45.57;20.30;;;;;;;5.78;66.27;97356.09;5052867;28;20183;-67
2021/03/23 03:24:50;;;;;;;36.77;19.67;;;;;;;5.91;66.23;97354.22;5051017;28;20249;-67
2021/03/23 03:27:15;;;;;;;38.80;19.97;;;;;;;5.78;66.30;97363.91;5050657;28;20355;-69
2021/03/23 03:29:41;;;;;;;43.30;20.37;;;;;;;6.18;65.48;97360.00;5053485;28;20654;-69
2021/03/23 03:32:07;;;;;;;36.83;20.00;;;;;;;5.89;66.35;97360.47;5049792;28;20228;-67
2021/03/23 03:34:33;;;;;;;43.87;20.43;;;;;;;5.76;66.83;97358.00;5050012;28;20218;-67
2021/03/23 03:36:58;;;;;;;45.23;21.43;;;;;;;5.87;66.99;97357.16;5051619;28;20421;-69
2021/03/23 03:39:24;;;;;;;36.37;21.17;;;;;;;5.98;65.73;97355.38;5048340;28;20207;-67
2021/03/23 03:41:50;;;;;;;42.47;21.50;;;;;;;6.04;65.51;97355.88;5058061;28;20205;-67
2021/03/23 03:44:15;;;;;;;48.33;21.30;;;;;;;6.07;65.54;97355.63;5070351;28;20593;-67
2021/03/23 03:46:41;;;;;;;37.50;19.53;;;;;;;5.79;66.09;97355.97;5062531;28;20237;-69
2021/03/23 03:49:07;;;;;;;46.37;21.60;;;;;;;5.67;66.44;97355.13;5055535;28;20194;-68
2021/03/23 03:51:32;;;;;;;44.60;21.13;;;;;;;5.74;67.17;97355.50;5056243;28;20175;-68
2021/03/23 03:53:58;;;;;;;40.90;21.43;;;;;;;5.75;66.42;97354.53;5059424;28;20210;-68
2021/03/23 03:56:24;;;;;;;41.23;20.00;;;;;;;5.65;67.09;97358.81;5064003;28;20221;-67
2021/03/23 03:58:51;;;;;;;42.70;21.10;;;;;;;5.56;67.20;97360.31;5073852;28;20207;-68
2021/03/23 04:01:16;;;;;;;46.60;22.03;;;;;;;5.67;67.21;97360.34;5058737;28;20183;-67
2021/03/23 04:03:42;;;;;;;35.60;19.93;;;;;;;5.70;67.09;97356.69;5055115;28;20425;-67
2021/03/23 04:06:08;;;;;;;40.40;19.10;;;;;;;5.65;67.63;97353.59;5054425;28;20202;-67
2021/03/23 04:08:34;;;;;;;42.77;21.87;;;;;;;5.54;67.53;97363.06;5047357;28;20616;-68
2021/03/23 04:11:03;;;;;;;47.43;23.27;;;;;;;5.59;67.65;97362.69;5053985;28;20433;-67
2021/03/23 04:13:28;;;;;;;39.80;19.90;;;;;;;5.63;67.17;97365.88;5062611;28;20464;-67
2021/03/23 04:15:54;;;;;;;44.23;21.40;;;;;;;5.47;68.10;97361.03;5066604;28;20822;-67
2021/03/23 04:18:27;;;;;;;38.10;20.13;;;;;;;5.41;67.87;97367.53;5055625;28;20204;-68
2021/03/23 04:20:56;;;;;;;41.77;19.93;;;;;;;5.33;67.97;97365.50;5050061;28;20418;-67
2021/03/23 04:23:30;;;;;;;48.13;23.77;;;;;;;5.54;67.55;97372.66;5054511;28;20491;-67
2021/03/23 04:25:56;;;;;;;38.17;20.20;;;;;;;5.53;68.03;97370.97;5053124;28;20906;-67
2021/03/23 04:28:22;;;;;;;35.10;19.60;;;;;;;5.42;68.26;97378.78;5035933;28;20831;-68
2021/03/23 04:30:48;;;;;;;40.23;19.37;;;;;;;5.54;67.98;97383.03;5052865;28;20483;-67
2021/03/23 04:33:15;;;;;;;44.73;20.73;;;;;;;5.49;67.98;97380.75;5052536;28;20458;-67
2021/03/23 04:35:59;;;;;;;42.23;20.93;;;;;;;5.43;68.24;97381.25;5048864;28;20938;-68
2021/03/23 04:38:33;;;;;;;39.17;19.40;;;;;;;5.72;67.41;97379.97;5063696;28;20444;-67
2021/03/23 04:41:04;;;;;;;42.90;20.10;;;;;;;5.67;66.82;97377.72;5054025;28;20799;-67
2021/03/23 04:43:33;;;;;;;40.10;20.27;;;;;;;5.86;66.71;97384.94;5052158;28;20426;-67
2021/03/23 04:45:59;;;;;;;42.17;19.30;;;;;;;5.63;66.61;97384.94;5050266;28;20434;-67
2021/03/23 04:48:25;;;;;;;39.10;19.57;;;;;;;5.85;66.51;97391.09;5052737;28;20476;-67
2021/03/23 04:50:51;;;;;;;35.43;19.87;;;;;;;5.71;66.69;97388.72;5052385;28;20183;-67
2021/03/23 04:53:29;;;;;;;36.00;20.00;;;;;;;5.78;66.42;97389.91;5052280;28;20464;-67
2021/03/23 04:55:59;;;;;;;39.50;18.67;;;;;;;5.66;67.21;97392.50;5053418;28;20455;-67
2021/03/23 04:58:26;;;;;;;39.40;18.43;;;;;;;5.87;66.13;97394.41;5052599;28;20453;-66
2021/03/23 05:00:52;;;;;;;40.27;19.13;;;;;;;5.51;66.66;97396.28;5051662;28;20425;-68
2021/03/23 05:03:27;;;;;;;42.17;19.17;;;;;;;5.59;67.30;97393.91;5051894;28;20463;-66
2021/03/23 05:05:54;;;;;;;38.30;19.67;;;;;;;5.76;67.12;97404.81;5052180;28;20928;-67
2021/03/23 05:08:20;;;;;;;41.50;19.77;;;;;;;5.79;66.64;97401.97;5053597;28;20469;-66
2021/03/23 05:10:46;;;;;;;38.67;20.47;;;;;;;5.74;66.36;97410.09;5055102;28;20925;-66
2021/03/23 05:13:11;;;;;;;45.10;21.13;;;;;;;5.49;67.38;97405.94;5059552;28;20511;-66
2021/03/23 05:15:37;;;;;;;41.43;20.80;;;;;;;5.72;66.71;97400.78;5052381;28;20187;-68
2021/03/23 05:18:03;;;;;;;42.60;20.83;;;;;;;5.80;66.92;97406.22;5056243;28;20211;-66
2021/03/23 05:20:29;;;;;;;38.20;19.70;;;;;;;5.74;66.32;97414.50;5053322;28;20737;-67
2021/03/23 05:22:54;;;;;;;43.60;20.00;;;;;;;5.89;66.93;97402.94;5034893;28;20472;-66
2021/03/23 05:25:20;;;;;;;39.07;19.80;;;;;;;5.86;66.17;97410.13;5051888;28;20194;-66
2021/03/23 05:27:46;;;;;;;45.67;20.37;;;;;;;5.75;66.66;97413.56;5050377;28;20272;-67
2021/03/23 05:30:12;;;;;;;39.00;21.20;;;;;;;5.63;66.47;97408.34;5052254;28;20184;-67
2021/03/23 05:32:38;;;;;;;42.17;20.40;;;;;;;5.96;66.58;97408.47;5052481;28;20197;-67
2021/03/23 05:35:05;;;;;;;39.83;20.93;;;;;;;5.88;65.96;97406.47;5059569;28;20469;-68
2021/03/23 05:37:31;;;;;;;39.03;20.73;;;;;;;5.88;66.02;97401.28;5050736;28;20190;-67
2021/03/23 05:39:57;;;;;;;40.50;20.27;;;;;;;6.13;65.25;97404.59;5050171;28;20434;-67
2021/03/23 05:42:41;;;;;;;40.97;20.60;;;;;;;5.97;65.23;97405.75;5050794;28;20183;-67
2021/03/23 05:45:14;;;;;;;39.67;20.07;;;;;;;6.29;65.04;97407.69;5050854;28;20765;-67
2021/03/23 05:47:43;;;;;;;39.60;20.80;;;;;;;6.34;64.34;97409.91;5052136;28;20453;-67
2021/03/23 05:50:32;;;;;;;37.47;19.73;;;;;;;6.27;64.77;97414.78;5002655;28;20421;-67
2021/03/23 05:53:10;;;;;;;44.93;22.10;;;;;;;6.32;64.29;97413.56;5041180;28;20458;-67
2021/03/23 05:55:48;;;;;;;39.50;19.80;;;;;;;6.09;65.13;97414.44;5084143;28;20494;-68
2021/03/23 05:58:24;;;;;;;40.83;21.07;;;;;;;5.99;65.99;97419.50;5052482;28;20981;-68
2021/03/23 06:01:18;;;;;;;46.00;21.10;;;;;;;6.16;65.07;97425.19;5050556;28;20425;-67
2021/03/23 06:03:57;;;;;;;41.03;21.00;;;;;;;6.39;64.24;97418.16;5048240;28;20483;-66
2021/03/23 06:06:41;;;;;;;38.50;19.50;;;;;;;6.39;64.43;97427.78;5049595;28;20429;-68
2021/03/23 06:09:11;;;;;;;48.83;21.30;;;;;;;6.47;63.83;97433.19;5050455;28;20540;-68
2021/03/23 06:11:39;;;;;;;36.97;18.40;;;;;;;6.66;63.82;97429.16;5050876;28;20956;-67
2021/03/23 06:14:26;;;;;;;38.13;20.60;;;;;;;6.66;63.26;97429.16;5049493;28;20473;-67
2021/03/23 06:17:10;;;;;;;45.57;19.93;;;;;;;6.85;63.19;97442.34;5049671;28;20433;-67
2021/03/23 06:19:39;;;;;;;47.37;20.50;;;;;;;6.80;62.83;97439.28;5049580;28;20436;-68
2021/03/23 06:22:20;;;;;;;44.67;20.43;;;;;;;6.79;63.12;97442.00;5032100;28;20985;-68
2021/03/23 06:25:04;;;;;;;38.80;20.50;;;;;;;6.77;62.39;97444.75;5050469;28;20418;-68
2021/03/23 06:27:46;;;;;;;42.43;22.80;;;;;;;6.75;62.66;97449.25;5050908;28;20441;-67
2021/03/23 06:30:31;;;;;;;47.83;21.83;;;;;;;6.81;62.79;97455.75;5049946;28;20436;-68
2021/03/23 06:32:57;;;;;;;37.87;20.30;;;;;;;6.75;62.97;97454.47;5050563;28;20913;-68
2021/03/23 06:35:27;;;;;;;44.90;21.80;;;;;;;6.80;62.61;97452.31;5051502;28;20927;-67
2021/03/23 06:37:53;;;;;;;47.90;21.37;;;;;;;6.47;63.13;97461.84;5054163;28;20869;-68
2021/03/23 06:40:32;;;;;;;39.70;19.37;;;;;;;6.78;62.80;97466.41;5051380;28;20418;-67
2021/03/23 06:43:27;;;;;;;43.80;19.90;;;;;;;6.63;62.71;97456.25;5061737;28;20190;-68
2021/03/23 06:46:23;;;;;;;41.43;20.53;;;;;;;6.49;63.16;97462.53;5052312;28;20441;-68
2021/03/23 06:49:03;;;;;;;41.47;20.60;;;;;;;6.83;62.57;97465.09;5049404;28;20445;-68
2021/03/23 06:51:28;;;;;;;40.13;19.90;;;;;;;6.83;62.23;97464.28;5050737;28;20793;-68
2021/03/23 06:54:12;;;;;;;43.73;20.57;;;;;;;7.02;62.12;97468.84;5052177;28;20467;-67
2021/03/23 06:56:38;;;;;;;45.43;22.07;;;;;;;6.74;62.80;97461.44;5052695;28;20183;-67
2021/03/23 06:59:19;;;;;;;41.00;21.27;;;;;;;6.79;62.84;97471.50;5054870;28;20537;-67
2021/03/23 07:01:44;;;;;;;41.30;20.67;;;;;;;6.76;62.88;97476.94;5055285;28;20209;-67
2021/03/23 07:04:16;;;;;;;42.83;21.93;;;;;;;6.93;62.14;97470.41;5056785;28;20782;-69
2021/03/23 07:06:42;;;;;;;52.80;22.47;;;;;;;6.73;62.73;97469.38;5055941;28;20274;-67
2021/03/23 07:09:21;;;;;;;45.33;21.90;;;;;;;6.54;63.25;97473.44;5056441;28;20962;-70
2021/03/23 07:11:56;;;;;;;38.13;22.03;;;;;;;7.08;61.92;97476.16;5051663;28;20433;-68
2021/03/23 07:14:24;;;;;;;41.80;20.77;;;;;;;7.27;60.91;97477.28;5055385;28;20988;-68
2021/03/23 07:16:50;;;;;;;42.20;21.50;;;;;;;7.49;60.37;97477.19;5060372;28;20456;-67
2021/03/23 07:19:15;;;;;;;41.93;22.70;;;;;;;6.85;62.25;97488.44;5063415;28;20794;-68
2021/03/23 07:21:47;;;;;;;46.10;23.40;;;;;;;7.05;61.67;97481.63;5076534;28;20190;-68
2021/03/23 07:24:16;;;;;;;43.80;20.80;;;;;;;6.88;62.44;97489.00;5050207;28;20866;-67
2021/03/23 07:26:56;;;;;;;42.50;22.53;;;;;;;7.06;61.92;97489.31;5054049;28;20440;-67
2021/03/23 07:29:25;;;;;;;41.60;20.97;;;;;;;7.13;62.21;97492.25;5053321;28;20489;-68
2021/03/23 07:32:05;;;;;;;46.50;21.33;;;;;;;7.30;61.13;97495.28;5059742;28;20427;-68
2021/03/23 07:34:49;;;;;;;43.03;22.67;;;;;;;7.25;61.34;97500.03;5052736;28;20453;-68
2021/03/23 07:37:54;;;;;;;46.70;24.20;;;;;;;7.66;60.20;97498.44;5047872;28;20450;-68
2021/03/23 07:40:28;;;;;;;43.07;21.07;;;;;;;7.65;59.75;97499.38;5017192;28;20422;-67
2021/03/23 07:43:31;;;;;;;45.57;22.27;;;;;;;7.63;60.39;97493.47;5012989;28;20419;-68
2021/03/23 07:46:04;;;;;;;50.83;24.40;;;;;;;7.55;60.17;97495.91;5013492;28;20422;-67
2021/03/23 07:49:14;;;;;;;50.17;22.30;;;;;;;7.69;60.16;97506.00;4997097;28;20479;-67
2021/03/23 07:51:45;;;;;;;46.53;20.33;;;;;;;7.36;60.27;97500.00;4991119;28;20959;-67
2021/03/23 07:54:23;;;;;;;44.87;23.13;;;;;;;7.50;60.51;97497.09;5011917;28;20516;-68
2021/03/23 07:57:30;;;;;;;42.67;21.43;;;;;;;8.22;58.70;97509.47;5012078;28;20423;-68
2021/03/23 08:00:14;;;;;;;39.40;20.37;;;;;;;8.56;58.06;97506.63;4995170;28;20435;-68
2021/03/23 08:03:08;;;;;;;39.43;20.10;;;;;;;8.64;56.29;97504.19;5014622;28;20462;-68
2021/03/23 08:05:48;;;;;;;41.70;21.27;;;;;;;8.78;55.85;97502.97;5012676;28;20458;-67
2021/03/23 08:08:17;;;;;;;38.00;20.73;;;;;;;8.25;57.47;97510.03;5001790;28;20467;-67
2021/03/23 08:10:52;;;;;;;40.27;20.57;;;;;;;8.38;57.97;97514.25;5037149;28;20426;-68
2021/03/23 08:13:29;;;;;;;44.43;22.00;;;;;;;8.53;57.08;97517.34;5051612;28;20824;-68
2021/03/23 08:16:06;;;;;;;42.10;21.10;;;;;;;8.83;55.98;97507.78;5071223;28;20423;-68
2021/03/23 08:18:44;;;;;;;39.70;19.70;;;;;;;9.12;54.94;97507.03;5055003;28;20442;-68
2021/03/23 08:21:36;;;;;;;42.53;21.00;;;;;;;8.90;54.90;97508.94;5030775;28;20435;-67
2021/03/23 08:24:24;;;;;;;38.83;19.67;;;;;;;9.05;55.34;97510.22;5062879;28;20418;-69
2021/03/23 08:27:08;;;;;;;32.63;18.07;;;;;;;8.85;55.42;97516.34;5072123;28;20436;-69
2021/03/23 08:29:59;;;;;;;40.27;19.50;;;;;;;8.86;55.31;97511.00;5064098;28;20948;-68
2021/03/23 08:32:48;;;;;;;35.77;18.03;;;;;;;9.29;54.19;97506.38;5047941;28;20414;-68
2021/03/23 08:35:29;;;;;;;35.83;19.53;;;;;;;9.33;53.67;97514.78;5045242;28;20422;-67
2021/03/23 08:38:09;;;;;;;33.90;18.40;;;;;;;9.57;53.70;97505.69;5055656;28;20528;-68
2021/03/23 08:41:13;;;;;;;39.33;19.17;;;;;;;9.54;53.33;97504.19;5051619;28;20422;-68
2021/03/23 08:43:41;;;;;;;30.03;17.37;;;;;;;9.42;53.59;97513.94;5036260;28;20433;-68
2021/03/23 08:46:16;;;;;;;32.70;18.23;;;;;;;9.81;53.39;97519.16;5053225;28;20417;-67
2021/03/23 08:48:51;;;;;;;34.33;18.33;;;;;;;10.04;52.49;97512.78;5043546;28;20888;-68
2021/03/23 08:51:21;;;;;;;38.87;18.57;;;;;;;10.03;52.30;97511.94;5059726;28;20433;-69
2021/03/23 08:53:56;;;;;;;41.53;18.50;;;;;;;10.12;51.75;97520.75;5051341;28;20449;-67
2021/03/23 08:56:40;;;;;;;42.53;20.17;;;;;;;9.67;52.97;97528.28;5037017;28;20449;-69
2021/03/23 08:59:36;;;;;;;74.73;25.80;;;;;;;10.11;51.81;97522.56;5058173;28;20866;-69
2021/03/23 09:02:07;;;;;;;33.63;18.00;;;;;;;10.20;51.15;97526.13;5050573;28;20413;-68
2021/03/23 09:04:34;;;;;;;38.73;19.07;;;;;;;10.38;50.96;97528.03;5054694;28;20418;-68
2021/03/23 09:07:04;;;;;;;36.37;19.73;;;;;;;10.49;50.56;97529.66;5051582;28;20424;-68
2021/03/23 09:09:41;;;;;;;39.67;19.47;;;;;;;10.77;50.16;97525.25;5051446;28;20464;-67
2021/03/23 09:12:31;;;;;;;32.70;18.90;;;;;;;10.95;49.20;97530.53;5051718;28;20501;-70
2021/03/23 09:15:09;;;;;;;26.57;15.87;;;;;;;11.09;48.03;97523.13;5052273;28;20457;-69
2021/03/23 09:18:00;;;;;;;27.20;15.87;;;;;;;10.72;48.04;97527.47;5055001;28;20540;-70
2021/03/23 09:20:34;;;;;;;23.30;13.30;;;;;;;10.64;47.89;97525.59;5036503;28;20501;-68
2021/03/23 09:23:15;;;;;;;23.00;13.73;;;;;;;10.76;46.91;97534.06;5052430;28;20436;-68
2021/03/23 09:26:00;;;;;;;24.87;13.30;;;;;;;10.37;48.68;97529.78;5085113;28;21089;-67
2021/03/23 09:28:32;;;;;;;25.13;14.93;;;;;;;10.94;47.43;97535.94;5054719;28;20477;-67
2021/03/23 09:31:08;;;;;;;27.43;14.03;;;;;;;10.85;47.09;97521.91;5035890;28;20517;-67
2021/03/23 09:33:33;;;;;;;20.27;11.57;;;;;;;10.51;46.85;97518.03;5053111;28;20457;-67
2021/03/23 09:36:12;;;;;;;18.43;10.80;;;;;;;10.22;47.01;97521.56;5055781;28;20809;-67
2021/03/23 09:38:42;;;;;;;18.90;10.30;;;;;;;10.21;46.72;97514.66;5051699;28;20226;-67
2021/03/23 09:41:36;;;;;;;15.53;10.10;;;;;;;10.24;46.52;97516.19;5050348;28;20478;-67
2021/03/23 09:44:05;;;;;;;19.43;10.03;;;;;;;10.35;46.38;97515.16;5052194;28;20425;-68
2021/03/23 09:46:45;;;;;;;21.00;11.07;;;;;;;10.57;45.82;97509.63;5050621;28;20483;-68
2021/03/23 09:49:25;;;;;;;19.20;10.00;;;;;;;10.78;45.17;97505.09;5052082;28;20536;-67
2021/03/23 09:52:06;;;;;;;16.90;8.63;;;;;;;10.71;44.33;97510.13;5051732;28;20421;-68
2021/03/23 09:54:53;;;;;;;14.40;7.37;;;;;;;10.88;43.59;97500.63;5056781;28;20550;-67
2021/03/23 09:57:24;;;;;;;13.30;8.30;;;;;;;10.26;44.70;97507.22;5046033;28;20445;-68
2021/03/23 09:59:53;;;;;;;24.03;9.33;;;;;;;10.52;44.04;97501.34;5047301;28;20457;-68
2021/03/23 10:02:30;;;;;;;13.63;8.30;;;;;;;10.70;43.55;97503.22;5049568;28;20436;-68
2021/03/23 10:04:55;;;;;;;14.47;8.27;;;;;;;10.84;43.23;97497.47;5051729;28;20552;-69
2021/03/23 10:07:38;;;;;;;6.47;4.77;;;;;;;10.12;42.45;97511.13;5059010;28;20921;-67
2021/03/23 10:10:15;;;;;;;6.23;4.30;;;;;;;9.92;42.74;97502.47;5042962;28;20229;-67
2021/03/23 10:12:42;;;;;;;12.00;6.50;;;;;;;9.97;41.62;97502.88;5059211;28;21075;-67
2021/03/23 10:15:23;;;;;;;33.93;10.80;;;;;;;9.97;43.10;97505.47;5051306;28;20512;-69
2021/03/23 10:17:49;;;;;;;10.93;6.73;;;;;;;10.22;43.71;97503.22;5051227;28;20457;-69
2021/03/23 10:20:20;;;;;;;58.63;15.03;;;;;;;9.57;42.40;97503.06;5051416;28;20422;-69
2021/03/23 10:22:53;;;;;;;61.90;14.87;;;;;;;9.31;43.21;97501.84;5046526;28;20479;-69
2021/03/23 10:25:20;;;;;;;22.03;6.83;;;;;;;9.71;42.34;97496.56;5079593;28;20430;-68
2021/03/23 10:27:47;;;;;;;10.53;4.93;;;;;;;10.02;41.58;97496.38;5042292;28;20487;-69
2021/03/23 10:30:13;;;;;;;8.83;5.30;;;;;;;10.22;41.83;97500.59;5043623;28;20426;-68
2021/03/23 10:32:46;;;;;;;8.10;5.23;;;;;;;9.99;41.88;97497.50;5043557;28;20422;-67
2021/03/23 10:35:38;;;;;;;8.37;5.43;;;;;;;9.16;43.76;97501.41;5060145;28;20475;-67
2021/03/23 10:38:19;;;;;;;7.93;5.20;;;;;;;9.58;42.96;97502.09;5049816;28;20461;-68
2021/03/23 10:40:51;;;;;;;10.50;6.47;;;;;;;9.56;43.09;97494.41;5051838;28;20441;-68
2021/03/23 10:43:36;;;;;;;8.73;5.50;;;;;;;9.94;42.84;97497.09;5044544;28;20635;-67
2021/03/23 10:46:27;;;;;;;8.80;5.40;;;;;;;10.04;42.43;97492.66;5047950;28;20456;-68
2021/03/23 10:48:53;;;;;;;8.10;4.97;;;;;;;10.37;41.46;97493.13;5049897;28;20437;-68
2021/03/23 10:51:28;;;;;;;8.17;5.03;;;;;;;10.16;41.64;97493.31;5047206;28;20937;-67
2021/03/23 10:54:16;;;;;;;8.60;6.10;;;;;;;9.96;42.40;97497.78;5035636;28;20240;-68
2021/03/23 10:56:51;;;;;;;11.53;5.90;;;;;;;9.73;43.05;97497.25;5053930;28;20422;-67
2021/03/23 10:59:17;;;;;;;10.13;6.37;;;;;;;10.10;42.70;97497.34;5058045;28;20446;-67
2021/03/23 11:02:06;;;;;;;9.03;6.23;;;;;;;10.38;41.91;97493.97;5054898;28;20432;-66
2021/03/23 11:04:34;;;;;;;12.77;6.00;;;;;;;10.01;42.63;97495.56;5051966;28;20563;-68
2021/03/23 11:07:58;;;;;;;11.93;6.57;;;;;;;9.37;44.54;97503.09;5057804;28;20428;-71
2021/03/23 11:10:26;;;;;;;13.13;6.37;;;;;;;8.81;45.51;97501.91;4981744;28;20486;-70
2021/03/23 11:12:52;;;;;;;14.33;6.97;;;;;;;9.54;43.89;97491.09;5003138;28;20828;-69
2021/03/23 11:15:18;;;;;;;24.70;9.03;;;;;;;9.72;44.07;97498.22;4998486;28;20562;-70
2021/03/23 11:17:48;;;;;;;12.53;6.83;;;;;;;9.77;43.92;97493.41;5014109;28;20641;-69
2021/03/23 11:20:37;;;;;;;14.50;7.83;;;;;;;10.11;43.03;97496.38;5018397;28;20187;-70
2021/03/23 11:23:11;;;;;;;12.27;6.43;;;;;;;9.65;43.84;97496.19;5010830;28;20443;-68
2021/03/23 11:25:37;;;;;;;9.50;6.47;;;;;;;10.32;42.17;97500.56;4996936;28;20508;-70
2021/03/23 11:28:04;;;;;;;8.20;6.13;;;;;;;10.68;41.94;97497.28;5013638;28;20459;-69
2021/03/23 11:30:30;;;;;;;10.20;6.90;;;;;;;10.97;41.02;97488.41;4984829;28;20678;-70
2021/03/23 11:32:56;;;;;;;9.83;6.50;;;;;;;11.01;40.87;97484.53;4984042;28;20431;-70
2021/03/23 11:35:23;;;;;;;9.73;6.73;;;;;;;10.99;41.04;97483.84;5005037;28;20516;-74
2021/03/23 11:37:49;;;;;;;9.33;6.20;;;;;;;10.77;40.62;97493.78;4980945;28;20254;-70
2021/03/23 11:40:15;;;;;;;9.37;5.63;;;;;;;10.93;40.64;97487.06;5025148;28;20459;-70
2021/03/23 11:42:43;;;;;;;9.30;6.33;;;;;;;10.85;41.30;97491.25;5054226;28;20433;-71
2021/03/23 11:45:19;;;;;;;11.87;7.50;;;;;;;10.05;43.62;97485.63;5046300;28;20417;-70
2021/03/23 11:47:54;;;;;;;12.83;8.20;;;;;;;9.87;43.52;97488.97;5053277;28;20429;-70
2021/03/23 11:50:24;;;;;;;17.60;8.07;;;;;;;9.80;43.43;97490.50;5055170;28;20579;-70